sensor_id;sensor_type;location;lat;lon;timestamp;temperature;humidity
15328;DHT22;7764;51.430;6.840;2022-10-16T00:00:38;14.00;99.90
15328;DHT22;7764;51.430;6.840;2022-10-16T00:03:07;14.00;99.90
15328;DHT22;7764;51.430;6.840;2022-10-16T00:05:38;14.00;99.90
15328;DHT22;7764;51.430;6.840;2022-10-16T00:08:06;14.00;99.90
15328;DHT22;7764;51.430;6.840;2022-10-16T00:10:33;14.00;99.90
15328;DHT22;7764;51.430;6.840;2022-10-16T00:13:00;14.00;99.90
15328;DHT22;7764;51.430;6.840;2022-10-16T00:15:27;13.90;99.90
15328;DHT22;7764;51.430;6.840;2022-10-16T00:17:54;13.90;99.90
15328;DHT22;7764;51.430;6.840;2022-10-16T00:20:22;13.90;99.90
15328;DHT22;7764;51.430;6.840;2022-10-16T00:22:49;13.90;99.90
15328;DHT22;7764;51.430;6.840;2022-10-16T00:25:16;13.90;99.90
15328;DHT22;7764;51.430;6.840;2022-10-16T00:27:43;13.90;99.90
15328;DHT22;7764;51.430;6.840;2022-10-16T00:30:10;13.90;99.90
15328;DHT22;7764;51.430;6.840;2022-10-16T00:32:37;13.90;99.90
15328;DHT22;7764;51.430;6.840;2022-10-16T00:35:05;13.90;99.90
15328;DHT22;7764;51.430;6.840;2022-10-16T00:37:33;13.90;99.90
15328;DHT22;7764;51.430;6.840;2022-10-16T00:40:00;13.90;99.90
15328;DHT22;7764;51.430;6.840;2022-10-16T00:42:27;13.90;99.90
15328;DHT22;7764;51.430;6.840;2022-10-16T00:44:55;13.90;99.90
15328;DHT22;7764;51.430;6.840;2022-10-16T00:47:26;13.90;99.90
15328;DHT22;7764;51.430;6.840;2022-10-16T00:49:58;13.90;99.90
15328;DHT22;7764;51.430;6.840;2022-10-16T00:52:25;13.90;99.90
15328;DHT22;7764;51.430;6.840;2022-10-16T00:54:54;13.90;99.90
15328;DHT22;7764;51.430;6.840;2022-10-16T00:57:21;13.90;99.90
15328;DHT22;7764;51.430;6.840;2022-10-16T00:59:48;13.90;99.90
15328;DHT22;7764;51.430;6.840;2022-10-16T01:02:16;13.90;99.90
15328;DHT22;7764;51.430;6.840;2022-10-16T01:04:45;13.90;99.90
15328;DHT22;7764;51.430;6.840;2022-10-16T01:07:18;13.80;99.90
15328;DHT22;7764;51.430;6.840;2022-10-16T01:10:02;13.80;99.90
15328;DHT22;7764;51.430;6.840;2022-10-16T01:12:35;13.80;99.90
15328;DHT22;7764;51.430;6.840;2022-10-16T01:15:08;13.80;99.90
15328;DHT22;7764;51.430;6.840;2022-10-16T01:17:41;13.80;99.90
15328;DHT22;7764;51.430;6.840;2022-10-16T01:20:16;13.80;99.90
15328;DHT22;7764;51.430;6.840;2022-10-16T01:22:56;13.80;99.90
15328;DHT22;7764;51.430;6.840;2022-10-16T01:25:39;13.80;99.90
15328;DHT22;7764;51.430;6.840;2022-10-16T01:28:15;13.70;99.90
15328;DHT22;7764;51.430;6.840;2022-10-16T01:30:44;13.70;99.90
15328;DHT22;7764;51.430;6.840;2022-10-16T01:33:16;13.70;99.90
15328;DHT22;7764;51.430;6.840;2022-10-16T01:35:47;13.70;99.90
15328;DHT22;7764;51.430;6.840;2022-10-16T01:38:19;13.70;99.90
15328;DHT22;7764;51.430;6.840;2022-10-16T01:40:51;13.70;99.90
15328;DHT22;7764;51.430;6.840;2022-10-16T01:43:26;13.70;99.90
15328;DHT22;7764;51.430;6.840;2022-10-16T01:45:55;13.80;99.90
15328;DHT22;7764;51.430;6.840;2022-10-16T01:48:23;13.80;99.90
15328;DHT22;7764;51.430;6.840;2022-10-16T01:50:55;13.80;99.90
15328;DHT22;7764;51.430;6.840;2022-10-16T01:53:22;13.80;99.90
15328;DHT22;7764;51.430;6.840;2022-10-16T01:55:52;13.80;99.90
15328;DHT22;7764;51.430;6.840;2022-10-16T01:58:23;13.80;99.90
15328;DHT22;7764;51.430;6.840;2022-10-16T02:00:52;13.90;99.90
15328;DHT22;7764;51.430;6.840;2022-10-16T02:03:20;13.90;99.90
15328;DHT22;7764;51.430;6.840;2022-10-16T02:05:50;13.90;99.90
15328;DHT22;7764;51.430;6.840;2022-10-16T02:08:18;13.90;99.90
15328;DHT22;7764;51.430;6.840;2022-10-16T02:10:45;13.90;99.90
15328;DHT22;7764;51.430;6.840;2022-10-16T02:13:17;13.90;99.90
15328;DHT22;7764;51.430;6.840;2022-10-16T02:15:47;13.90;99.90
15328;DHT22;7764;51.430;6.840;2022-10-16T02:18:14;13.90;99.90
15328;DHT22;7764;51.430;6.840;2022-10-16T02:20:48;13.90;99.90
15328;DHT22;7764;51.430;6.840;2022-10-16T02:23:21;13.80;99.90
15328;DHT22;7764;51.430;6.840;2022-10-16T02:25:50;13.80;99.90
15328;DHT22;7764;51.430;6.840;2022-10-16T02:28:23;13.70;99.90
15328;DHT22;7764;51.430;6.840;2022-10-16T02:30:56;13.70;99.90
15328;DHT22;7764;51.430;6.840;2022-10-16T02:33:25;13.80;99.90
15328;DHT22;7764;51.430;6.840;2022-10-16T02:35:53;13.80;99.90
15328;DHT22;7764;51.430;6.840;2022-10-16T02:38:21;13.80;99.90
15328;DHT22;7764;51.430;6.840;2022-10-16T02:40:48;13.80;99.90
15328;DHT22;7764;51.430;6.840;2022-10-16T02:43:16;13.80;99.90
15328;DHT22;7764;51.430;6.840;2022-10-16T02:45:43;13.80;99.90
15328;DHT22;7764;51.430;6.840;2022-10-16T02:48:11;13.80;99.90
15328;DHT22;7764;51.430;6.840;2022-10-16T02:50:38;13.80;99.90
15328;DHT22;7764;51.430;6.840;2022-10-16T02:53:04;13.80;99.90
15328;DHT22;7764;51.430;6.840;2022-10-16T02:55:31;13.90;99.90
15328;DHT22;7764;51.430;6.840;2022-10-16T02:57:58;13.90;99.90
15328;DHT22;7764;51.430;6.840;2022-10-16T03:00:25;13.90;99.90
15328;DHT22;7764;51.430;6.840;2022-10-16T03:02:52;13.90;99.90
15328;DHT22;7764;51.430;6.840;2022-10-16T03:05:20;13.90;99.90
15328;DHT22;7764;51.430;6.840;2022-10-16T03:07:47;14.00;99.90
15328;DHT22;7764;51.430;6.840;2022-10-16T03:10:14;14.00;99.90
15328;DHT22;7764;51.430;6.840;2022-10-16T03:12:41;14.00;99.90
15328;DHT22;7764;51.430;6.840;2022-10-16T03:15:08;14.00;99.90
15328;DHT22;7764;51.430;6.840;2022-10-16T03:17:35;14.00;99.90
15328;DHT22;7764;51.430;6.840;2022-10-16T03:20:23;14.00;99.90
15328;DHT22;7764;51.430;6.840;2022-10-16T03:22:50;14.00;99.90
15328;DHT22;7764;51.430;6.840;2022-10-16T03:25:17;14.00;99.90
15328;DHT22;7764;51.430;6.840;2022-10-16T03:27:44;14.00;99.90
15328;DHT22;7764;51.430;6.840;2022-10-16T03:30:12;14.00;99.90
15328;DHT22;7764;51.430;6.840;2022-10-16T03:32:38;14.00;99.90
15328;DHT22;7764;51.430;6.840;2022-10-16T03:35:06;14.00;99.90
15328;DHT22;7764;51.430;6.840;2022-10-16T03:37:35;14.00;99.90
15328;DHT22;7764;51.430;6.840;2022-10-16T03:40:02;14.00;99.90
15328;DHT22;7764;51.430;6.840;2022-10-16T03:42:29;14.00;99.90
15328;DHT22;7764;51.430;6.840;2022-10-16T03:44:56;13.90;99.90
15328;DHT22;7764;51.430;6.840;2022-10-16T03:47:23;13.90;99.90
15328;DHT22;7764;51.430;6.840;2022-10-16T03:49:50;13.90;99.90
15328;DHT22;7764;51.430;6.840;2022-10-16T03:52:17;13.90;99.90
15328;DHT22;7764;51.430;6.840;2022-10-16T03:54:45;13.80;99.90
15328;DHT22;7764;51.430;6.840;2022-10-16T03:57:12;13.80;99.90
15328;DHT22;7764;51.430;6.840;2022-10-16T03:59:38;13.80;99.90
15328;DHT22;7764;51.430;6.840;2022-10-16T04:02:05;13.80;99.90
15328;DHT22;7764;51.430;6.840;2022-10-16T04:04:32;13.80;99.90
15328;DHT22;7764;51.430;6.840;2022-10-16T04:06:59;13.80;99.90
15328;DHT22;7764;51.430;6.840;2022-10-16T04:09:26;13.80;99.90
15328;DHT22;7764;51.430;6.840;2022-10-16T04:11:54;13.80;99.90
15328;DHT22;7764;51.430;6.840;2022-10-16T04:14:21;13.80;99.90
15328;DHT22;7764;51.430;6.840;2022-10-16T04:16:48;13.80;99.90
15328;DHT22;7764;51.430;6.840;2022-10-16T04:19:15;13.70;99.90
15328;DHT22;7764;51.430;6.840;2022-10-16T04:21:42;13.80;99.90
15328;DHT22;7764;51.430;6.840;2022-10-16T04:24:08;13.80;99.90
15328;DHT22;7764;51.430;6.840;2022-10-16T04:26:36;13.80;99.90
15328;DHT22;7764;51.430;6.840;2022-10-16T04:29:04;13.80;99.90
15328;DHT22;7764;51.430;6.840;2022-10-16T04:31:31;13.80;99.90
15328;DHT22;7764;51.430;6.840;2022-10-16T04:33:58;13.70;99.90
15328;DHT22;7764;51.430;6.840;2022-10-16T04:36:25;13.80;99.90
15328;DHT22;7764;51.430;6.840;2022-10-16T04:38:52;13.70;99.90
15328;DHT22;7764;51.430;6.840;2022-10-16T04:41:19;13.70;99.90
15328;DHT22;7764;51.430;6.840;2022-10-16T04:43:46;13.80;99.90
15328;DHT22;7764;51.430;6.840;2022-10-16T04:46:14;13.70;99.90
15328;DHT22;7764;51.430;6.840;2022-10-16T04:48:41;13.80;99.90
15328;DHT22;7764;51.430;6.840;2022-10-16T04:51:08;13.80;99.90
15328;DHT22;7764;51.430;6.840;2022-10-16T04:53:34;13.80;99.90
15328;DHT22;7764;51.430;6.840;2022-10-16T04:56:02;13.70;99.90
15328;DHT22;7764;51.430;6.840;2022-10-16T04:58:28;13.70;99.90
15328;DHT22;7764;51.430;6.840;2022-10-16T05:00:55;13.70;99.90
15328;DHT22;7764;51.430;6.840;2022-10-16T05:03:24;13.70;99.90
15328;DHT22;7764;51.430;6.840;2022-10-16T05:05:50;13.70;99.90
15328;DHT22;7764;51.430;6.840;2022-10-16T05:08:17;13.70;99.90
15328;DHT22;7764;51.430;6.840;2022-10-16T05:10:44;13.80;99.90
15328;DHT22;7764;51.430;6.840;2022-10-16T05:13:12;13.70;99.90
15328;DHT22;7764;51.430;6.840;2022-10-16T05:15:39;13.80;99.90
15328;DHT22;7764;51.430;6.840;2022-10-16T05:18:06;13.80;99.90
15328;DHT22;7764;51.430;6.840;2022-10-16T05:20:34;13.70;99.90
15328;DHT22;7764;51.430;6.840;2022-10-16T05:23:01;13.80;99.90
15328;DHT22;7764;51.430;6.840;2022-10-16T05:25:28;13.80;99.90
15328;DHT22;7764;51.430;6.840;2022-10-16T05:27:55;13.80;99.90
15328;DHT22;7764;51.430;6.840;2022-10-16T05:30:22;13.80;99.90
15328;DHT22;7764;51.430;6.840;2022-10-16T05:32:50;13.80;99.90
15328;DHT22;7764;51.430;6.840;2022-10-16T05:35:18;13.70;99.90
15328;DHT22;7764;51.430;6.840;2022-10-16T05:37:47;13.70;99.90
15328;DHT22;7764;51.430;6.840;2022-10-16T05:40:14;13.70;99.90
15328;DHT22;7764;51.430;6.840;2022-10-16T05:42:42;13.70;99.90
15328;DHT22;7764;51.430;6.840;2022-10-16T05:45:10;13.70;99.90
15328;DHT22;7764;51.430;6.840;2022-10-16T05:47:37;13.70;99.90
15328;DHT22;7764;51.430;6.840;2022-10-16T05:50:04;13.80;99.90
15328;DHT22;7764;51.430;6.840;2022-10-16T05:52:31;13.70;99.90
15328;DHT22;7764;51.430;6.840;2022-10-16T05:54:59;13.70;99.90
15328;DHT22;7764;51.430;6.840;2022-10-16T05:57:26;13.70;99.90
15328;DHT22;7764;51.430;6.840;2022-10-16T05:59:53;13.70;99.90
15328;DHT22;7764;51.430;6.840;2022-10-16T06:02:20;13.70;99.90
15328;DHT22;7764;51.430;6.840;2022-10-16T06:04:47;13.70;99.90
15328;DHT22;7764;51.430;6.840;2022-10-16T06:07:14;13.70;99.90
15328;DHT22;7764;51.430;6.840;2022-10-16T06:09:40;13.70;99.90
15328;DHT22;7764;51.430;6.840;2022-10-16T06:12:09;13.70;99.90
15328;DHT22;7764;51.430;6.840;2022-10-16T06:14:35;13.70;99.90
15328;DHT22;7764;51.430;6.840;2022-10-16T06:17:02;13.70;99.90
15328;DHT22;7764;51.430;6.840;2022-10-16T06:19:29;13.70;99.90
15328;DHT22;7764;51.430;6.840;2022-10-16T06:21:57;13.70;99.90
15328;DHT22;7764;51.430;6.840;2022-10-16T06:24:24;13.70;99.90
15328;DHT22;7764;51.430;6.840;2022-10-16T06:26:51;13.70;99.90
15328;DHT22;7764;51.430;6.840;2022-10-16T06:29:19;13.80;99.90
15328;DHT22;7764;51.430;6.840;2022-10-16T06:31:46;13.80;99.90
15328;DHT22;7764;51.430;6.840;2022-10-16T06:34:13;13.80;99.90
15328;DHT22;7764;51.430;6.840;2022-10-16T06:36:40;13.80;99.90
15328;DHT22;7764;51.430;6.840;2022-10-16T06:39:07;13.90;99.90
15328;DHT22;7764;51.430;6.840;2022-10-16T06:41:34;13.90;99.90
15328;DHT22;7764;51.430;6.840;2022-10-16T06:44:01;14.00;99.90
15328;DHT22;7764;51.430;6.840;2022-10-16T06:46:32;14.10;99.90
15328;DHT22;7764;51.430;6.840;2022-10-16T06:48:59;14.10;99.90
15328;DHT22;7764;51.430;6.840;2022-10-16T06:51:26;14.10;99.90
15328;DHT22;7764;51.430;6.840;2022-10-16T06:53:55;14.10;99.90
15328;DHT22;7764;51.430;6.840;2022-10-16T06:56:24;14.10;99.90
15328;DHT22;7764;51.430;6.840;2022-10-16T06:58:52;14.00;99.90
15328;DHT22;7764;51.430;6.840;2022-10-16T07:01:21;14.10;99.90
15328;DHT22;7764;51.430;6.840;2022-10-16T07:03:49;14.10;99.90
15328;DHT22;7764;51.430;6.840;2022-10-16T07:06:18;14.10;99.90
15328;DHT22;7764;51.430;6.840;2022-10-16T07:08:46;14.10;99.90
15328;DHT22;7764;51.430;6.840;2022-10-16T07:11:14;14.20;99.90
15328;DHT22;7764;51.430;6.840;2022-10-16T07:13:43;14.20;99.90
15328;DHT22;7764;51.430;6.840;2022-10-16T07:16:12;14.20;99.90
15328;DHT22;7764;51.430;6.840;2022-10-16T07:18:39;14.20;99.90
15328;DHT22;7764;51.430;6.840;2022-10-16T07:21:11;14.10;99.90
15328;DHT22;7764;51.430;6.840;2022-10-16T07:23:38;14.10;99.90
15328;DHT22;7764;51.430;6.840;2022-10-16T07:26:06;14.10;99.90
15328;DHT22;7764;51.430;6.840;2022-10-16T07:28:33;14.10;99.90
15328;DHT22;7764;51.430;6.840;2022-10-16T07:31:01;14.10;99.90
15328;DHT22;7764;51.430;6.840;2022-10-16T07:33:29;14.20;99.90
15328;DHT22;7764;51.430;6.840;2022-10-16T07:35:55;14.30;99.90
15328;DHT22;7764;51.430;6.840;2022-10-16T07:38:24;14.40;99.90
15328;DHT22;7764;51.430;6.840;2022-10-16T07:40:56;14.50;99.90
15328;DHT22;7764;51.430;6.840;2022-10-16T07:43:24;14.60;99.90
15328;DHT22;7764;51.430;6.840;2022-10-16T07:45:51;14.70;99.90
15328;DHT22;7764;51.430;6.840;2022-10-16T07:48:19;14.80;99.90
15328;DHT22;7764;51.430;6.840;2022-10-16T07:50:46;14.90;99.90
15328;DHT22;7764;51.430;6.840;2022-10-16T07:53:13;15.00;99.90
15328;DHT22;7764;51.430;6.840;2022-10-16T07:55:42;15.00;99.90
15328;DHT22;7764;51.430;6.840;2022-10-16T07:58:09;15.20;99.90
15328;DHT22;7764;51.430;6.840;2022-10-16T08:00:36;15.20;99.90
15328;DHT22;7764;51.430;6.840;2022-10-16T08:03:03;15.30;99.90
15328;DHT22;7764;51.430;6.840;2022-10-16T08:05:32;15.40;99.90
15328;DHT22;7764;51.430;6.840;2022-10-16T08:08:00;15.40;99.90
15328;DHT22;7764;51.430;6.840;2022-10-16T08:10:28;15.50;99.90
15328;DHT22;7764;51.430;6.840;2022-10-16T08:12:56;15.50;99.90
15328;DHT22;7764;51.430;6.840;2022-10-16T08:15:24;15.60;99.90
15328;DHT22;7764;51.430;6.840;2022-10-16T08:17:55;15.70;99.90
15328;DHT22;7764;51.430;6.840;2022-10-16T08:20:22;15.80;99.90
15328;DHT22;7764;51.430;6.840;2022-10-16T08:22:49;15.80;99.90
15328;DHT22;7764;51.430;6.840;2022-10-16T08:25:16;15.90;99.90
15328;DHT22;7764;51.430;6.840;2022-10-16T08:27:43;16.00;99.90
15328;DHT22;7764;51.430;6.840;2022-10-16T08:30:13;16.00;99.90
15328;DHT22;7764;51.430;6.840;2022-10-16T08:32:40;16.10;99.90
15328;DHT22;7764;51.430;6.840;2022-10-16T08:35:08;16.10;99.90
15328;DHT22;7764;51.430;6.840;2022-10-16T08:37:36;16.20;99.90
15328;DHT22;7764;51.430;6.840;2022-10-16T08:40:05;16.30;99.90
15328;DHT22;7764;51.430;6.840;2022-10-16T08:42:44;16.40;99.90
15328;DHT22;7764;51.430;6.840;2022-10-16T08:45:40;16.40;99.90
15328;DHT22;7764;51.430;6.840;2022-10-16T08:48:18;16.40;99.90
15328;DHT22;7764;51.430;6.840;2022-10-16T08:50:47;16.50;99.90
15328;DHT22;7764;51.430;6.840;2022-10-16T08:53:20;16.60;99.90
15328;DHT22;7764;51.430;6.840;2022-10-16T08:55:50;16.70;99.90
15328;DHT22;7764;51.430;6.840;2022-10-16T08:58:19;16.80;99.90
15328;DHT22;7764;51.430;6.840;2022-10-16T09:00:53;16.80;99.90
15328;DHT22;7764;51.430;6.840;2022-10-16T09:03:33;16.90;99.90
15328;DHT22;7764;51.430;6.840;2022-10-16T09:06:17;17.00;99.90
15328;DHT22;7764;51.430;6.840;2022-10-16T09:09:04;16.90;99.90
15328;DHT22;7764;51.430;6.840;2022-10-16T09:11:44;17.00;99.90
15328;DHT22;7764;51.430;6.840;2022-10-16T09:14:29;17.10;99.90
15328;DHT22;7764;51.430;6.840;2022-10-16T09:17:29;17.10;99.90
15328;DHT22;7764;51.430;6.840;2022-10-16T09:20:11;17.20;99.90
15328;DHT22;7764;51.430;6.840;2022-10-16T09:22:39;17.30;99.90
15328;DHT22;7764;51.430;6.840;2022-10-16T09:25:12;17.40;99.90
15328;DHT22;7764;51.430;6.840;2022-10-16T09:27:39;17.40;99.90
15328;DHT22;7764;51.430;6.840;2022-10-16T09:30:12;17.40;99.90
15328;DHT22;7764;51.430;6.840;2022-10-16T09:32:42;17.40;99.90
15328;DHT22;7764;51.430;6.840;2022-10-16T09:35:14;17.40;99.90
15328;DHT22;7764;51.430;6.840;2022-10-16T09:37:43;17.50;99.90
15328;DHT22;7764;51.430;6.840;2022-10-16T09:40:23;17.60;99.90
15328;DHT22;7764;51.430;6.840;2022-10-16T09:42:56;17.60;99.90
15328;DHT22;7764;51.430;6.840;2022-10-16T09:45:25;17.70;99.90
15328;DHT22;7764;51.430;6.840;2022-10-16T09:47:53;17.70;99.90
15328;DHT22;7764;51.430;6.840;2022-10-16T09:50:23;17.80;99.90
15328;DHT22;7764;51.430;6.840;2022-10-16T09:53:02;17.80;99.90
15328;DHT22;7764;51.430;6.840;2022-10-16T09:55:29;17.80;99.90
15328;DHT22;7764;51.430;6.840;2022-10-16T09:57:56;17.90;99.90
15328;DHT22;7764;51.430;6.840;2022-10-16T10:00:24;17.90;99.90
15328;DHT22;7764;51.430;6.840;2022-10-16T10:02:53;18.00;99.90
15328;DHT22;7764;51.430;6.840;2022-10-16T10:05:22;18.00;99.90
15328;DHT22;7764;51.430;6.840;2022-10-16T10:07:55;17.90;99.90
15328;DHT22;7764;51.430;6.840;2022-10-16T10:10:25;17.90;99.90
15328;DHT22;7764;51.430;6.840;2022-10-16T10:12:53;18.00;99.90
15328;DHT22;7764;51.430;6.840;2022-10-16T10:15:21;18.00;99.90
15328;DHT22;7764;51.430;6.840;2022-10-16T10:17:50;18.00;99.90
15328;DHT22;7764;51.430;6.840;2022-10-16T10:20:28;17.90;99.90
15328;DHT22;7764;51.430;6.840;2022-10-16T10:22:56;18.00;99.90
15328;DHT22;7764;51.430;6.840;2022-10-16T10:25:36;17.90;99.90
15328;DHT22;7764;51.430;6.840;2022-10-16T10:28:33;18.00;99.90
15328;DHT22;7764;51.430;6.840;2022-10-16T10:31:10;18.00;99.90
15328;DHT22;7764;51.430;6.840;2022-10-16T10:33:44;18.00;99.90
15328;DHT22;7764;51.430;6.840;2022-10-16T10:36:25;18.00;99.90
15328;DHT22;7764;51.430;6.840;2022-10-16T10:38:58;18.10;99.90
15328;DHT22;7764;51.430;6.840;2022-10-16T10:42:02;18.10;99.90
15328;DHT22;7764;51.430;6.840;2022-10-16T10:44:55;18.10;99.90
15328;DHT22;7764;51.430;6.840;2022-10-16T10:47:30;18.00;99.90
15328;DHT22;7764;51.430;6.840;2022-10-16T10:50:04;18.10;99.90
15328;DHT22;7764;51.430;6.840;2022-10-16T10:52:45;18.00;99.90
15328;DHT22;7764;51.430;6.840;2022-10-16T10:55:22;18.10;99.90
15328;DHT22;7764;51.430;6.840;2022-10-16T10:58:12;18.10;99.90
15328;DHT22;7764;51.430;6.840;2022-10-16T11:00:47;18.10;99.90
15328;DHT22;7764;51.430;6.840;2022-10-16T11:03:28;18.10;99.90
15328;DHT22;7764;51.430;6.840;2022-10-16T11:06:05;18.10;99.90
15328;DHT22;7764;51.430;6.840;2022-10-16T11:08:37;18.00;99.90
15328;DHT22;7764;51.430;6.840;2022-10-16T11:11:10;18.00;99.90
15328;DHT22;7764;51.430;6.840;2022-10-16T11:13:43;18.00;99.90
15328;DHT22;7764;51.430;6.840;2022-10-16T11:16:17;18.00;99.90
15328;DHT22;7764;51.430;6.840;2022-10-16T11:18:49;18.10;99.90
15328;DHT22;7764;51.430;6.840;2022-10-16T11:21:21;18.10;99.90
15328;DHT22;7764;51.430;6.840;2022-10-16T11:23:53;18.10;99.90
15328;DHT22;7764;51.430;6.840;2022-10-16T11:26:27;18.10;99.90
15328;DHT22;7764;51.430;6.840;2022-10-16T11:28:57;18.30;99.90
15328;DHT22;7764;51.430;6.840;2022-10-16T11:31:29;18.20;99.90
15328;DHT22;7764;51.430;6.840;2022-10-16T11:34:02;18.20;99.90
15328;DHT22;7764;51.430;6.840;2022-10-16T11:36:37;18.20;99.90
15328;DHT22;7764;51.430;6.840;2022-10-16T11:39:12;18.10;99.90
15328;DHT22;7764;51.430;6.840;2022-10-16T11:41:45;18.10;99.90
15328;DHT22;7764;51.430;6.840;2022-10-16T11:44:27;18.20;99.90
15328;DHT22;7764;51.430;6.840;2022-10-16T11:47:16;18.20;99.90
15328;DHT22;7764;51.430;6.840;2022-10-16T11:49:47;18.20;99.90
15328;DHT22;7764;51.430;6.840;2022-10-16T11:52:20;18.20;99.90
15328;DHT22;7764;51.430;6.840;2022-10-16T11:54:54;18.20;99.90
15328;DHT22;7764;51.430;6.840;2022-10-16T11:57:24;18.20;99.90
15328;DHT22;7764;51.430;6.840;2022-10-16T11:59:57;18.20;99.90
15328;DHT22;7764;51.430;6.840;2022-10-16T12:02:44;18.20;99.90
15328;DHT22;7764;51.430;6.840;2022-10-16T12:05:22;18.30;99.90
15328;DHT22;7764;51.430;6.840;2022-10-16T12:07:57;18.40;99.90
15328;DHT22;7764;51.430;6.840;2022-10-16T12:10:30;18.50;99.90
15328;DHT22;7764;51.430;6.840;2022-10-16T12:13:02;18.40;99.90
15328;DHT22;7764;51.430;6.840;2022-10-16T12:15:30;18.40;99.90
15328;DHT22;7764;51.430;6.840;2022-10-16T12:17:58;18.40;99.90
15328;DHT22;7764;51.430;6.840;2022-10-16T12:20:28;18.30;99.90
15328;DHT22;7764;51.430;6.840;2022-10-16T12:22:58;18.30;99.90
15328;DHT22;7764;51.430;6.840;2022-10-16T12:25:29;18.20;99.90
15328;DHT22;7764;51.430;6.840;2022-10-16T12:28:02;18.20;99.90
15328;DHT22;7764;51.430;6.840;2022-10-16T12:30:32;18.10;99.90
15328;DHT22;7764;51.430;6.840;2022-10-16T12:33:01;18.10;99.90
15328;DHT22;7764;51.430;6.840;2022-10-16T12:35:30;18.20;99.90
15328;DHT22;7764;51.430;6.840;2022-10-16T12:38:12;18.30;99.90
15328;DHT22;7764;51.430;6.840;2022-10-16T12:40:44;18.40;99.90
15328;DHT22;7764;51.430;6.840;2022-10-16T12:43:23;18.40;99.90
15328;DHT22;7764;51.430;6.840;2022-10-16T12:46:04;18.50;99.90
15328;DHT22;7764;51.430;6.840;2022-10-16T12:48:31;18.60;99.90
15328;DHT22;7764;51.430;6.840;2022-10-16T12:51:10;18.60;99.90
15328;DHT22;7764;51.430;6.840;2022-10-16T12:53:37;18.60;99.90
15328;DHT22;7764;51.430;6.840;2022-10-16T12:56:15;18.60;99.90
15328;DHT22;7764;51.430;6.840;2022-10-16T12:58:55;18.60;99.90
15328;DHT22;7764;51.430;6.840;2022-10-16T13:01:34;18.70;99.90
15328;DHT22;7764;51.430;6.840;2022-10-16T13:07:00;18.70;99.90
15328;DHT22;7764;51.430;6.840;2022-10-16T13:09:40;18.70;99.90
15328;DHT22;7764;51.430;6.840;2022-10-16T13:12:25;18.60;99.90
15328;DHT22;7764;51.430;6.840;2022-10-16T13:15:16;18.60;99.90
15328;DHT22;7764;51.430;6.840;2022-10-16T13:17:54;18.60;99.90
15328;DHT22;7764;51.430;6.840;2022-10-16T13:20:31;18.70;99.90
15328;DHT22;7764;51.430;6.840;2022-10-16T13:23:09;18.70;99.90
15328;DHT22;7764;51.430;6.840;2022-10-16T13:25:48;18.70;99.90
15328;DHT22;7764;51.430;6.840;2022-10-16T13:28:22;18.70;99.90
15328;DHT22;7764;51.430;6.840;2022-10-16T13:30:55;18.70;99.90
15328;DHT22;7764;51.430;6.840;2022-10-16T13:33:28;18.70;99.90
15328;DHT22;7764;51.430;6.840;2022-10-16T13:35:57;18.70;99.90
15328;DHT22;7764;51.430;6.840;2022-10-16T13:38:26;18.60;99.90
15328;DHT22;7764;51.430;6.840;2022-10-16T13:40:55;18.60;99.90
15328;DHT22;7764;51.430;6.840;2022-10-16T13:43:26;18.60;99.90
15328;DHT22;7764;51.430;6.840;2022-10-16T13:45:56;18.60;99.90
15328;DHT22;7764;51.430;6.840;2022-10-16T13:48:23;18.60;99.90
15328;DHT22;7764;51.430;6.840;2022-10-16T13:51:05;18.70;99.90
15328;DHT22;7764;51.430;6.840;2022-10-16T13:53:33;18.70;99.90
15328;DHT22;7764;51.430;6.840;2022-10-16T13:56:03;18.80;99.90
15328;DHT22;7764;51.430;6.840;2022-10-16T13:58:34;18.80;99.90
15328;DHT22;7764;51.430;6.840;2022-10-16T14:01:02;18.90;99.90
15328;DHT22;7764;51.430;6.840;2022-10-16T14:03:31;18.90;99.90
15328;DHT22;7764;51.430;6.840;2022-10-16T14:06:01;19.00;99.90
15328;DHT22;7764;51.430;6.840;2022-10-16T14:08:29;19.00;99.90
15328;DHT22;7764;51.430;6.840;2022-10-16T14:10:58;19.00;99.90
15328;DHT22;7764;51.430;6.840;2022-10-16T14:13:34;19.00;99.90
15328;DHT22;7764;51.430;6.840;2022-10-16T14:16:07;19.00;99.90
15328;DHT22;7764;51.430;6.840;2022-10-16T14:18:35;18.90;99.90
15328;DHT22;7764;51.430;6.840;2022-10-16T14:21:05;18.90;99.90
15328;DHT22;7764;51.430;6.840;2022-10-16T14:23:35;18.90;99.90
15328;DHT22;7764;51.430;6.840;2022-10-16T14:26:11;18.80;99.90
15328;DHT22;7764;51.430;6.840;2022-10-16T14:28:42;18.80;99.90
15328;DHT22;7764;51.430;6.840;2022-10-16T14:31:30;18.80;99.90
15328;DHT22;7764;51.430;6.840;2022-10-16T14:33:57;18.80;99.90
15328;DHT22;7764;51.430;6.840;2022-10-16T14:36:25;18.80;99.90
15328;DHT22;7764;51.430;6.840;2022-10-16T14:39:02;18.80;99.90
15328;DHT22;7764;51.430;6.840;2022-10-16T14:41:30;18.90;99.90
15328;DHT22;7764;51.430;6.840;2022-10-16T14:44:02;18.90;99.90
15328;DHT22;7764;51.430;6.840;2022-10-16T14:46:33;18.90;99.90
15328;DHT22;7764;51.430;6.840;2022-10-16T14:49:04;18.80;99.90
15328;DHT22;7764;51.430;6.840;2022-10-16T14:51:40;18.80;99.90
15328;DHT22;7764;51.430;6.840;2022-10-16T14:54:10;18.80;99.90
15328;DHT22;7764;51.430;6.840;2022-10-16T14:56:45;18.80;99.90
15328;DHT22;7764;51.430;6.840;2022-10-16T14:59:16;18.80;99.90
15328;DHT22;7764;51.430;6.840;2022-10-16T15:01:43;18.80;99.90
15328;DHT22;7764;51.430;6.840;2022-10-16T15:04:12;18.80;99.90
15328;DHT22;7764;51.430;6.840;2022-10-16T15:06:39;18.70;99.90
15328;DHT22;7764;51.430;6.840;2022-10-16T15:09:06;18.70;99.90
15328;DHT22;7764;51.430;6.840;2022-10-16T15:11:33;18.60;99.90
15328;DHT22;7764;51.430;6.840;2022-10-16T15:14:00;18.60;99.90
15328;DHT22;7764;51.430;6.840;2022-10-16T15:16:31;18.50;99.90
15328;DHT22;7764;51.430;6.840;2022-10-16T15:18:58;18.50;99.90
15328;DHT22;7764;51.430;6.840;2022-10-16T15:21:26;18.50;99.90
15328;DHT22;7764;51.430;6.840;2022-10-16T15:23:54;18.50;99.90
15328;DHT22;7764;51.430;6.840;2022-10-16T15:26:22;18.50;99.90
15328;DHT22;7764;51.430;6.840;2022-10-16T15:28:49;18.40;99.90
15328;DHT22;7764;51.430;6.840;2022-10-16T15:31:16;18.40;99.90
15328;DHT22;7764;51.430;6.840;2022-10-16T15:33:44;18.40;99.90
15328;DHT22;7764;51.430;6.840;2022-10-16T15:36:23;18.40;99.90
15328;DHT22;7764;51.430;6.840;2022-10-16T15:38:50;18.30;99.90
15328;DHT22;7764;51.430;6.840;2022-10-16T15:41:18;18.30;99.90
15328;DHT22;7764;51.430;6.840;2022-10-16T15:43:48;18.30;99.90
15328;DHT22;7764;51.430;6.840;2022-10-16T15:46:17;18.20;99.90
15328;DHT22;7764;51.430;6.840;2022-10-16T15:48:45;18.20;99.90
15328;DHT22;7764;51.430;6.840;2022-10-16T15:51:12;18.10;99.90
15328;DHT22;7764;51.430;6.840;2022-10-16T15:53:39;18.10;99.90
15328;DHT22;7764;51.430;6.840;2022-10-16T15:56:08;18.10;99.90
15328;DHT22;7764;51.430;6.840;2022-10-16T15:58:36;18.00;99.90
15328;DHT22;7764;51.430;6.840;2022-10-16T16:01:03;17.90;99.90
15328;DHT22;7764;51.430;6.840;2022-10-16T16:03:31;17.90;99.90
15328;DHT22;7764;51.430;6.840;2022-10-16T16:06:03;17.80;99.90
15328;DHT22;7764;51.430;6.840;2022-10-16T16:08:31;17.80;99.90